Time;durP1;ratioP1;P1;durP2;ratioP2;P2;SDS_P1;SDS_P2;PMS_P1;PMS_P2;Temp;Humidity;BMP_temperature;BMP_pressure;BME280_temperature;BME280_humidity;BME280_pressure;Samples;Min_cycle;Max_cycle;Signal;HPM_P1;HPM_P2
2023/09/02 00:01:39;;;;;;;2.47;2.25;;;;;;;;;;4998251;28;20407;-20
2023/09/02 00:04:05;;;;;;;7.07;2.67;;;;;;;;;;4997942;28;20053;-21
2023/09/02 00:06:31;;;;;;;2.38;1.88;;;;;;;;;;4998195;28;20050;-22
2023/09/02 00:08:57;;;;;;;2.45;1.98;;;;;;;;;;4997219;28;20030;-20
2023/09/02 00:11:24;;;;;;;2.53;1.92;;;;;;;;;;4997219;28;20035;-20
2023/09/02 00:13:50;;;;;;;4.57;2.13;;;;;;;;;;4998266;28;20034;-20
2023/09/02 00:16:17;;;;;;;2.92;2.00;;;;;;;;;;4997146;28;20026;-21
2023/09/02 00:18:44;;;;;;;2.97;1.80;;;;;;;;;;4998024;28;20076;-21
2023/09/02 00:21:11;;;;;;;2.83;1.67;;;;;;;;;;4998160;28;20041;-21
2023/09/02 00:23:39;;;;;;;4.55;1.92;;;;;;;;;;4997889;28;20354;-22
2023/09/02 00:26:05;;;;;;;2.30;2.00;;;;;;;;;;4997818;28;20041;-20
2023/09/02 00:28:31;;;;;;;4.57;1.95;;;;;;;;;;4998108;28;20022;-21
2023/09/02 00:30:57;;;;;;;3.67;2.03;;;;;;;;;;4998029;28;20465;-21
2023/09/02 00:33:24;;;;;;;3.75;1.80;;;;;;;;;;4997942;28;20053;-22
2023/09/02 00:35:50;;;;;;;5.65;1.90;;;;;;;;;;4997695;28;20457;-21
2023/09/02 00:38:16;;;;;;;2.75;1.60;;;;;;;;;;4997908;28;20065;-21
2023/09/02 00:40:44;;;;;;;3.72;2.15;;;;;;;;;;4998080;28;20026;-22
2023/09/02 00:43:10;;;;;;;2.50;1.63;;;;;;;;;;4997509;28;20046;-22
2023/09/02 00:45:36;;;;;;;3.65;1.63;;;;;;;;;;4997488;28;20057;-22
2023/09/02 00:48:02;;;;;;;3.00;1.85;;;;;;;;;;4997737;28;20353;-21
2023/09/02 00:50:28;;;;;;;1.70;1.55;;;;;;;;;;4997399;28;20029;-21
2023/09/02 00:52:54;;;;;;;3.05;1.60;;;;;;;;;;4997462;28;20354;-23
2023/09/02 00:55:21;;;;;;;2.22;1.90;;;;;;;;;;4997643;28;20162;-22
2023/09/02 00:57:47;;;;;;;4.30;2.10;;;;;;;;;;4997579;28;20023;-21
2023/09/02 01:00:14;;;;;;;2.72;2.13;;;;;;;;;;4997179;28;20034;-21
2023/09/02 01:02:41;;;;;;;2.28;1.88;;;;;;;;;;4998285;28;20034;-22
2023/09/02 01:05:07;;;;;;;2.30;2.10;;;;;;;;;;4997043;28;20104;-25
2023/09/02 01:07:33;;;;;;;3.35;1.42;;;;;;;;;;4997134;28;20041;-22
2023/09/02 01:10:00;;;;;;;2.15;1.92;;;;;;;;;;4996149;28;20520;-21
2023/09/02 01:12:27;;;;;;;3.05;1.88;;;;;;;;;;4996983;28;20038;-22
2023/09/02 01:14:53;;;;;;;2.47;1.75;;;;;;;;;;4996986;28;20064;-21
2023/09/02 01:17:19;;;;;;;2.35;2.03;;;;;;;;;;4996973;28;20027;-23
2023/09/02 01:19:47;;;;;;;1.98;1.52;;;;;;;;;;4996878;28;20037;-22
2023/09/02 01:22:20;;;;;;;2.63;2.05;;;;;;;;;;4996697;28;20026;-22
2023/09/02 01:25:19;;;;;;;2.60;1.77;;;;;;;;;;4997110;28;20030;-22
2023/09/02 01:27:50;;;;;;;3.70;2.50;;;;;;;;;;4974802;28;20030;-22
2023/09/02 01:30:19;;;;;;;2.08;1.80;;;;;;;;;;4997018;28;20019;-21
2023/09/02 01:32:47;;;;;;;2.03;1.40;;;;;;;;;;4996570;28;20040;-21
2023/09/02 01:35:16;;;;;;;3.28;1.90;;;;;;;;;;4996586;28;20026;-22
2023/09/02 01:37:44;;;;;;;2.28;1.67;;;;;;;;;;4996509;28;20473;-21
2023/09/02 01:40:11;;;;;;;2.33;1.40;;;;;;;;;;4996488;28;20022;-22
2023/09/02 01:42:38;;;;;;;4.45;1.75;;;;;;;;;;4996320;28;20165;-24
2023/09/02 01:45:04;;;;;;;2.88;1.73;;;;;;;;;;4996686;28;20047;-22
2023/09/02 01:47:31;;;;;;;1.90;1.52;;;;;;;;;;4996877;28;20027;-22
2023/09/02 01:49:58;;;;;;;3.90;1.70;;;;;;;;;;4996569;28;20417;-21
2023/09/02 01:52:25;;;;;;;1.98;1.77;;;;;;;;;;4996156;28;20030;-22
2023/09/02 01:54:51;;;;;;;2.58;1.63;;;;;;;;;;4996480;28;20069;-23
2023/09/02 01:57:17;;;;;;;3.15;2.35;;;;;;;;;;4996488;28;20147;-23
2023/09/02 01:59:44;;;;;;;2.05;1.77;;;;;;;;;;4995153;28;20026;-22
2023/09/02 02:02:10;;;;;;;3.17;2.20;;;;;;;;;;4996219;28;20125;-25
2023/09/02 02:04:38;;;;;;;3.03;1.60;;;;;;;;;;4996579;28;20370;-22
2023/09/02 02:07:10;;;;;;;1.90;1.42;;;;;;;;;;4995985;28;20442;-22
2023/09/02 02:09:40;;;;;;;5.15;1.88;;;;;;;;;;4996240;28;20054;-22
2023/09/02 02:12:07;;;;;;;2.73;1.93;;;;;;;;;;4995620;28;20026;-21
2023/09/02 02:14:34;;;;;;;1.88;1.52;;;;;;;;;;4994962;28;20081;-22
2023/09/02 02:17:02;;;;;;;2.35;1.70;;;;;;;;;;4995832;28;20089;-21
2023/09/02 02:19:28;;;;;;;2.55;1.63;;;;;;;;;;4995776;28;20062;-21
2023/09/02 02:21:55;;;;;;;2.33;1.40;;;;;;;;;;4995587;28;20064;-22
2023/09/02 02:24:21;;;;;;;1.60;1.48;;;;;;;;;;4995997;28;20018;-22
2023/09/02 02:26:47;;;;;;;5.43;2.30;;;;;;;;;;4995679;28;20027;-21
2023/09/02 02:29:13;;;;;;;5.10;2.10;;;;;;;;;;4995910;28;20022;-22
2023/09/02 02:31:39;;;;;;;1.73;1.63;;;;;;;;;;4995629;28;20022;-23
2023/09/02 02:34:06;;;;;;;2.08;1.48;;;;;;;;;;4994575;28;20403;-23
2023/09/02 02:36:32;;;;;;;2.47;1.70;;;;;;;;;;4995806;28;20097;-22
2023/09/02 02:38:58;;;;;;;1.67;1.30;;;;;;;;;;4995488;28;20042;-23
2023/09/02 02:41:24;;;;;;;2.75;1.80;;;;;;;;;;4995639;28;20043;-22
2023/09/02 02:43:50;;;;;;;2.53;1.50;;;;;;;;;;4995343;28;20029;-21
2023/09/02 02:46:16;;;;;;;2.17;1.63;;;;;;;;;;4995402;28;20026;-22
2023/09/02 02:48:42;;;;;;;2.45;1.75;;;;;;;;;;4995656;28;20037;-24
2023/09/02 02:51:09;;;;;;;2.58;1.73;;;;;;;;;;4995358;28;20030;-22
2023/09/02 02:53:36;;;;;;;2.63;1.60;;;;;;;;;;4995493;28;20030;-22
2023/09/02 02:56:02;;;;;;;8.40;3.65;;;;;;;;;;4995837;28;20027;-23
2023/09/02 02:58:29;;;;;;;2.17;1.92;;;;;;;;;;4995546;28;20076;-22
2023/09/02 03:01:06;;;;;;;2.22;1.60;;;;;;;;;;4995723;28;20053;-22
2023/09/02 03:03:33;;;;;;;1.60;1.27;;;;;;;;;;4995226;28;20050;-24
2023/09/02 03:06:03;;;;;;;1.98;1.67;;;;;;;;;;4995220;28;20109;-21
2023/09/02 03:08:29;;;;;;;4.22;1.98;;;;;;;;;;4995759;28;20333;-23
2023/09/02 03:10:57;;;;;;;5.22;2.85;;;;;;;;;;4995158;28;20026;-22
2023/09/02 03:13:28;;;;;;;2.35;1.38;;;;;;;;;;4995356;28;20034;-21
2023/09/02 03:15:54;;;;;;;2.03;1.40;;;;;;;;;;4995689;28;20034;-22
2023/09/02 03:18:21;;;;;;;1.88;1.27;;;;;;;;;;4995635;28;20030;-21
2023/09/02 03:20:47;;;;;;;1.95;1.33;;;;;;;;;;4994982;28;20026;-22
2023/09/02 03:23:14;;;;;;;2.20;1.30;;;;;;;;;;4995071;28;20030;-22
2023/09/02 03:25:40;;;;;;;2.05;1.50;;;;;;;;;;4999297;28;20052;-24
2023/09/02 03:28:06;;;;;;;2.10;1.65;;;;;;;;;;4999222;28;20033;-22
2023/09/02 03:30:33;;;;;;;1.23;1.13;;;;;;;;;;4999205;28;20029;-22
2023/09/02 03:32:59;;;;;;;3.95;1.52;;;;;;;;;;4998816;28;20037;-21
2023/09/02 03:35:25;;;;;;;1.67;1.40;;;;;;;;;;4998834;28;20026;-22
2023/09/02 03:37:51;;;;;;;2.40;1.70;;;;;;;;;;4999312;28;20027;-22
2023/09/02 03:40:18;;;;;;;1.10;1.00;;;;;;;;;;4998760;28;20022;-22
2023/09/02 03:42:44;;;;;;;3.80;1.95;;;;;;;;;;4998624;28;20045;-22
2023/09/02 03:45:10;;;;;;;1.83;1.20;;;;;;;;;;4998905;28;20041;-23
2023/09/02 03:47:37;;;;;;;3.33;2.25;;;;;;;;;;4998615;28;20069;-23
2023/09/02 03:50:04;;;;;;;1.65;1.20;;;;;;;;;;4998840;28;20118;-22
2023/09/02 03:52:30;;;;;;;2.03;1.17;;;;;;;;;;4998478;28;20458;-21
2023/09/02 03:54:57;;;;;;;1.95;1.45;;;;;;;;;;4998478;28;20105;-21
2023/09/02 03:57:24;;;;;;;1.35;1.20;;;;;;;;;;4998397;28;20497;-21
2023/09/02 03:59:50;;;;;;;2.25;1.52;;;;;;;;;;4998629;28;20026;-22
2023/09/02 04:02:16;;;;;;;1.85;1.58;;;;;;;;;;4998191;28;20030;-21
2023/09/02 04:04:42;;;;;;;1.48;1.38;;;;;;;;;;4998099;28;20121;-22
2023/09/02 04:07:09;;;;;;;1.83;1.20;;;;;;;;;;4998537;28;20060;-21
2023/09/02 04:09:35;;;;;;;1.73;1.17;;;;;;;;;;4998738;28;20411;-22
2023/09/02 04:12:01;;;;;;;2.78;1.50;;;;;;;;;;4998111;28;20030;-22
2023/09/02 04:14:27;;;;;;;2.22;1.75;;;;;;;;;;4998646;28;20101;-22
2023/09/02 04:16:54;;;;;;;1.42;1.30;;;;;;;;;;4998332;28;20031;-22
2023/09/02 04:19:22;;;;;;;2.28;1.73;;;;;;;;;;4998054;28;20030;-22
2023/09/02 04:21:49;;;;;;;2.42;2.08;;;;;;;;;;4997765;28;20030;-22
2023/09/02 04:24:15;;;;;;;1.65;1.30;;;;;;;;;;4998264;28;20023;-22
2023/09/02 04:26:41;;;;;;;2.20;1.33;;;;;;;;;;4998480;28;20362;-21
2023/09/02 04:29:07;;;;;;;2.42;1.77;;;;;;;;;;4996882;28;20117;-22
2023/09/02 04:31:33;;;;;;;1.42;1.27;;;;;;;;;;4997823;28;20030;-25
2023/09/02 04:34:00;;;;;;;3.20;1.40;;;;;;;;;;4997741;28;20074;-22
2023/09/02 04:36:26;;;;;;;1.58;1.27;;;;;;;;;;4997040;28;20030;-22
2023/09/02 04:38:52;;;;;;;2.10;1.30;;;;;;;;;;4996730;28;20038;-22
2023/09/02 04:41:18;;;;;;;1.67;1.08;;;;;;;;;;4997603;28;20453;-22
2023/09/02 04:43:44;;;;;;;1.10;1.00;;;;;;;;;;4997525;28;20041;-21
2023/09/02 04:46:11;;;;;;;1.33;1.20;;;;;;;;;;4997549;28;20061;-22
2023/09/02 04:48:37;;;;;;;1.15;0.90;;;;;;;;;;4997792;28;20092;-22
2023/09/02 04:51:04;;;;;;;1.65;1.55;;;;;;;;;;4997780;28;20049;-22
2023/09/02 04:53:30;;;;;;;2.22;1.25;;;;;;;;;;4997620;28;20122;-21
2023/09/02 04:55:56;;;;;;;1.92;1.45;;;;;;;;;;4997659;28;20034;-21
2023/09/02 04:58:23;;;;;;;1.73;1.17;;;;;;;;;;4997370;28;20357;-21
2023/09/02 05:00:49;;;;;;;1.55;1.30;;;;;;;;;;4997243;28;20034;-21
2023/09/02 05:03:16;;;;;;;1.25;0.95;;;;;;;;;;4996976;28;20103;-22
2023/09/02 05:05:42;;;;;;;1.10;1.05;;;;;;;;;;4997772;28;20026;-21
2023/09/02 05:08:08;;;;;;;1.23;1.13;;;;;;;;;;4997120;28;20022;-22
2023/09/02 05:10:34;;;;;;;2.72;2.33;;;;;;;;;;4997082;28;20027;-22
2023/09/02 05:13:00;;;;;;;1.35;1.25;;;;;;;;;;4997042;28;20022;-21
2023/09/02 05:15:26;;;;;;;1.13;1.00;;;;;;;;;;4997269;28;20025;-22
2023/09/02 05:17:53;;;;;;;2.85;1.50;;;;;;;;;;4997203;28;20026;-22
2023/09/02 05:20:19;;;;;;;1.63;1.15;;;;;;;;;;4997202;28;20026;-22
2023/09/02 05:22:45;;;;;;;1.73;1.45;;;;;;;;;;4996900;28;20030;-21
2023/09/02 05:25:11;;;;;;;2.20;1.58;;;;;;;;;;4996849;28;20458;-21
2023/09/02 05:27:38;;;;;;;2.42;1.63;;;;;;;;;;4997048;28;20049;-21
2023/09/02 05:30:06;;;;;;;2.80;1.13;;;;;;;;;;4996731;28;20468;-21
2023/09/02 05:32:32;;;;;;;2.90;1.67;;;;;;;;;;4996889;28;20026;-21
2023/09/02 05:34:58;;;;;;;2.03;1.17;;;;;;;;;;4996885;28;20030;-21
2023/09/02 05:37:24;;;;;;;1.73;1.10;;;;;;;;;;4996573;28;20030;-21
2023/09/02 05:39:50;;;;;;;1.42;1.33;;;;;;;;;;4996585;28;20042;-24
2023/09/02 05:42:16;;;;;;;1.95;1.20;;;;;;;;;;4996632;28;20038;-21
2023/09/02 05:44:42;;;;;;;1.75;1.27;;;;;;;;;;4996719;28;20093;-22
2023/09/02 05:47:08;;;;;;;1.15;1.05;;;;;;;;;;4995477;28;20026;-21
2023/09/02 05:49:38;;;;;;;1.00;0.82;;;;;;;;;;4996330;28;20114;-22
2023/09/02 05:52:05;;;;;;;1.70;1.30;;;;;;;;;;4996429;28;20026;-21
2023/09/02 05:54:32;;;;;;;1.23;1.05;;;;;;;;;;4996623;28;20346;-21
2023/09/02 05:56:58;;;;;;;1.30;1.20;;;;;;;;;;4996195;28;20027;-21
2023/09/02 05:59:24;;;;;;;2.47;1.38;;;;;;;;;;4996094;28;20105;-23
2023/09/02 06:01:50;;;;;;;1.45;1.10;;;;;;;;;;4996240;28;20027;-21
2023/09/02 06:04:16;;;;;;;1.50;1.40;;;;;;;;;;4995824;28;20096;-21
2023/09/02 06:06:46;;;;;;;1.40;1.30;;;;;;;;;;4995916;28;20473;-21
2023/09/02 06:09:12;;;;;;;0.93;0.82;;;;;;;;;;4996272;28;20026;-24
2023/09/02 06:11:38;;;;;;;1.95;1.85;;;;;;;;;;4995950;28;20343;-24
2023/09/02 06:14:04;;;;;;;2.00;1.38;;;;;;;;;;4995860;28;20065;-21
2023/09/02 06:16:30;;;;;;;2.03;1.27;;;;;;;;;;4995918;28;20038;-21
2023/09/02 06:18:56;;;;;;;1.67;1.35;;;;;;;;;;4995808;28;20026;-22
2023/09/02 06:21:22;;;;;;;1.77;1.13;;;;;;;;;;4996262;28;20362;-22
2023/09/02 06:23:49;;;;;;;1.95;1.38;;;;;;;;;;4995977;28;20106;-21
2023/09/02 06:26:16;;;;;;;1.63;1.15;;;;;;;;;;4995695;28;20064;-21
2023/09/02 06:28:42;;;;;;;1.77;1.23;;;;;;;;;;4995990;28;20076;-21
2023/09/02 06:31:08;;;;;;;1.58;1.30;;;;;;;;;;4995618;28;20033;-22
2023/09/02 06:33:35;;;;;;;3.47;1.08;;;;;;;;;;4995568;28;20023;-23
2023/09/02 06:36:08;;;;;;;1.23;1.13;;;;;;;;;;4995872;28;20128;-21
2023/09/02 06:38:34;;;;;;;0.70;0.70;;;;;;;;;;4995601;28;20034;-21
2023/09/02 06:41:00;;;;;;;2.00;1.00;;;;;;;;;;4995689;28;20026;-22
2023/09/02 06:43:27;;;;;;;1.48;0.77;;;;;;;;;;4995385;28;20037;-21
2023/09/02 06:45:53;;;;;;;2.95;1.00;;;;;;;;;;4995692;28;20026;-22
2023/09/02 06:48:19;;;;;;;1.17;1.02;;;;;;;;;;4994501;28;20339;-21
2023/09/02 06:50:46;;;;;;;2.50;1.30;;;;;;;;;;4995328;28;20031;-21
2023/09/02 06:53:12;;;;;;;1.20;1.00;;;;;;;;;;4995281;28;20030;-22
2023/09/02 06:55:39;;;;;;;1.25;1.00;;;;;;;;;;4995312;28;20026;-23
2023/09/02 06:58:05;;;;;;;1.27;1.20;;;;;;;;;;4994082;28;20019;-21
2023/09/02 07:00:31;;;;;;;0.85;0.80;;;;;;;;;;4995672;28;20030;-21
2023/09/02 07:02:57;;;;;;;1.88;1.30;;;;;;;;;;4994992;28;20027;-22
2023/09/02 07:05:23;;;;;;;1.92;1.10;;;;;;;;;;4995204;28;20026;-21
2023/09/02 07:07:49;;;;;;;1.48;1.38;;;;;;;;;;4995177;28;20030;-22
2023/09/02 07:10:17;;;;;;;1.55;1.23;;;;;;;;;;4995157;28;20093;-21
2023/09/02 07:12:43;;;;;;;1.38;0.93;;;;;;;;;;4995119;28;20027;-22
2023/09/02 07:15:09;;;;;;;2.05;1.95;;;;;;;;;;4995378;28;20034;-21
2023/09/02 07:17:36;;;;;;;1.60;1.10;;;;;;;;;;4995079;28;20085;-21
2023/09/02 07:20:02;;;;;;;1.23;1.00;;;;;;;;;;4995357;28;20038;-22
2023/09/02 07:22:28;;;;;;;1.42;1.02;;;;;;;;;;4994931;28;20097;-22
2023/09/02 07:24:55;;;;;;;1.02;1.00;;;;;;;;;;4995283;28;20049;-22
2023/09/02 07:27:22;;;;;;;1.35;1.02;;;;;;;;;;4994974;28;20027;-24
2023/09/02 07:29:48;;;;;;;2.40;1.42;;;;;;;;;;4995263;28;20393;-22
2023/09/02 07:32:14;;;;;;;2.03;1.35;;;;;;;;;;4994926;28;20114;-21
2023/09/02 07:34:41;;;;;;;3.00;2.00;;;;;;;;;;4995198;28;20065;-22
2023/09/02 07:37:07;;;;;;;1.35;0.93;;;;;;;;;;4995203;28;20061;-21
2023/09/02 07:39:34;;;;;;;1.83;1.33;;;;;;;;;;4994930;28;20034;-21
2023/09/02 07:42:00;;;;;;;1.42;1.10;;;;;;;;;;4995044;28;20522;-21
2023/09/02 07:44:26;;;;;;;1.40;1.30;;;;;;;;;;4995159;28;20030;-21
2023/09/02 07:46:54;;;;;;;0.95;0.82;;;;;;;;;;4995001;28;20086;-21
2023/09/02 07:49:20;;;;;;;1.10;0.98;;;;;;;;;;4994856;28;20030;-21
2023/09/02 07:51:46;;;;;;;1.08;0.98;;;;;;;;;;4995021;28;20033;-24
2023/09/02 07:54:14;;;;;;;3.15;1.25;;;;;;;;;;4995574;28;20030;-21
2023/09/02 07:56:40;;;;;;;2.53;1.33;;;;;;;;;;4995023;28;20030;-21
2023/09/02 07:59:06;;;;;;;1.73;1.10;;;;;;;;;;4995235;28;20022;-22
2023/09/02 08:01:32;;;;;;;1.42;1.15;;;;;;;;;;4994684;28;20413;-21
2023/09/02 08:03:59;;;;;;;2.03;1.42;;;;;;;;;;4994449;28;20043;-21
2023/09/02 08:06:25;;;;;;;1.17;0.93;;;;;;;;;;4993738;28;20468;-22
2023/09/02 08:08:53;;;;;;;1.02;0.88;;;;;;;;;;4994663;28;20023;-22
2023/09/02 08:11:19;;;;;;;1.23;0.95;;;;;;;;;;4996370;28;20423;-24
2023/09/02 08:13:45;;;;;;;3.03;1.33;;;;;;;;;;4998149;28;20034;-21
2023/09/02 08:16:11;;;;;;;2.85;1.00;;;;;;;;;;4998116;28;20053;-21
2023/09/02 08:18:37;;;;;;;1.30;1.20;;;;;;;;;;4998326;28;20026;-21
2023/09/02 08:21:10;;;;;;;1.38;1.10;;;;;;;;;;4997995;28;20030;-21
2023/09/02 08:23:39;;;;;;;2.80;1.25;;;;;;;;;;4997983;28;20031;-22
2023/09/02 08:26:06;;;;;;;1.30;1.02;;;;;;;;;;4998246;28;20023;-22
2023/09/02 08:28:32;;;;;;;1.00;0.90;;;;;;;;;;4998185;28;20030;-21
2023/09/02 08:30:59;;;;;;;1.25;0.80;;;;;;;;;;4998123;28;20026;-23
2023/09/02 08:33:25;;;;;;;1.80;0.90;;;;;;;;;;4997778;28;20038;-21
2023/09/02 08:35:51;;;;;;;1.20;1.02;;;;;;;;;;4997800;28;20026;-21
2023/09/02 08:38:17;;;;;;;1.20;0.88;;;;;;;;;;4997995;28;20054;-21
2023/09/02 08:40:43;;;;;;;1.27;1.10;;;;;;;;;;4997616;28;20097;-21
2023/09/02 08:43:10;;;;;;;1.20;1.10;;;;;;;;;;4997831;28;20030;-21
2023/09/02 08:45:38;;;;;;;1.95;1.27;;;;;;;;;;4996680;28;20085;-21
2023/09/02 08:48:08;;;;;;;1.25;1.00;;;;;;;;;;4997817;28;20022;-21
2023/09/02 08:50:35;;;;;;;1.08;0.90;;;;;;;;;;4997544;28;20026;-22
2023/09/02 08:53:02;;;;;;;1.52;1.20;;;;;;;;;;4997424;28;20037;-21
2023/09/02 08:55:32;;;;;;;1.75;1.00;;;;;;;;;;4997679;28;20034;-22
2023/09/02 08:57:59;;;;;;;1.10;0.82;;;;;;;;;;4997414;28;20023;-21
2023/09/02 09:00:25;;;;;;;1.55;1.30;;;;;;;;;;4997650;28;20018;-24
2023/09/02 09:02:52;;;;;;;0.98;0.90;;;;;;;;;;4997221;28;20026;-25
2023/09/02 09:05:18;;;;;;;1.13;0.85;;;;;;;;;;4997242;28;20036;-21
2023/09/02 09:07:45;;;;;;;1.23;0.93;;;;;;;;;;4996208;28;20027;-22
2023/09/02 09:10:13;;;;;;;0.90;0.88;;;;;;;;;;4997130;28;20038;-21
2023/09/02 09:12:40;;;;;;;0.70;0.70;;;;;;;;;;4997290;28;20089;-21
2023/09/02 09:15:07;;;;;;;1.50;1.23;;;;;;;;;;4997076;28;20030;-22
2023/09/02 09:17:33;;;;;;;0.70;0.70;;;;;;;;;;4997318;28;20420;-21
2023/09/02 09:20:00;;;;;;;1.33;0.80;;;;;;;;;;4996893;28;20072;-21
2023/09/02 09:22:27;;;;;;;1.17;1.05;;;;;;;;;;4996864;28;20362;-21
2023/09/02 09:24:53;;;;;;;1.10;1.00;;;;;;;;;;4996855;28;20054;-22
2023/09/02 09:27:19;;;;;;;1.08;0.98;;;;;;;;;;4997108;28;20033;-21
2023/09/02 09:29:45;;;;;;;1.17;1.08;;;;;;;;;;4996798;28;20034;-21
2023/09/02 09:32:13;;;;;;;1.17;0.95;;;;;;;;;;4995731;28;20046;-21
2023/09/02 09:34:40;;;;;;;1.25;1.15;;;;;;;;;;4997188;28;20022;-22
2023/09/02 09:37:08;;;;;;;0.98;0.80;;;;;;;;;;4996889;28;20034;-21
2023/09/02 09:39:47;;;;;;;1.17;0.90;;;;;;;;;;4996862;28;20026;-22
2023/09/02 09:42:17;;;;;;;0.85;0.85;;;;;;;;;;4996675;28;20106;-21
2023/09/02 09:45:00;;;;;;;1.33;1.17;;;;;;;;;;4996880;28;20085;-21
2023/09/02 09:47:27;;;;;;;1.33;1.10;;;;;;;;;;4996752;28;20413;-21
2023/09/02 09:49:53;;;;;;;1.30;1.20;;;;;;;;;;4996425;28;20105;-21
2023/09/02 09:52:21;;;;;;;1.63;1.05;;;;;;;;;;4996309;28;20507;-21
2023/09/02 09:54:48;;;;;;;1.88;1.30;;;;;;;;;;4996298;28;20126;-21
2023/09/02 09:57:29;;;;;;;1.80;1.13;;;;;;;;;;4996208;28;20031;-21
2023/09/02 09:59:55;;;;;;;0.68;0.68;;;;;;;;;;4996541;28;20061;-22
2023/09/02 10:02:22;;;;;;;1.65;1.20;;;;;;;;;;4995957;28;20022;-21
2023/09/02 10:04:52;;;;;;;1.33;1.23;;;;;;;;;;4996014;28;20432;-21
2023/09/02 10:07:26;;;;;;;1.40;0.80;;;;;;;;;;4996359;28;20105;-21
2023/09/02 10:09:56;;;;;;;0.80;0.80;;;;;;;;;;4996310;28;20030;-21
2023/09/02 10:12:22;;;;;;;4.30;1.27;;;;;;;;;;4995937;28;20023;-21
2023/09/02 10:14:49;;;;;;;1.85;0.77;;;;;;;;;;4995938;28;20022;-21
2023/09/02 10:17:15;;;;;;;1.13;1.02;;;;;;;;;;4995892;28;20034;-21
2023/09/02 10:19:42;;;;;;;1.42;0.77;;;;;;;;;;4996466;28;20022;-21
2023/09/02 10:22:08;;;;;;;1.25;1.15;;;;;;;;;;4995671;28;20049;-21
2023/09/02 10:24:35;;;;;;;1.45;1.02;;;;;;;;;;4996029;28;20448;-21
2023/09/02 10:27:06;;;;;;;0.82;0.80;;;;;;;;;;4995768;28;20018;-21
2023/09/02 10:29:32;;;;;;;;;;;;;;;;;;4996431;28;20033;-22
2023/09/02 10:32:03;;;;;;;1.00;0.90;;;;;;;;;;4995871;28;20221;-21
2023/09/02 10:34:35;;;;;;;1.27;0.90;;;;;;;;;;4995430;28;20112;-21
2023/09/02 10:37:03;;;;;;;0.85;0.80;;;;;;;;;;4994637;28;20045;-22
2023/09/02 10:39:32;;;;;;;1.85;1.27;;;;;;;;;;4995773;28;20045;-21
2023/09/02 10:41:59;;;;;;;2.10;1.00;;;;;;;;;;4994427;28;20040;-23
2023/09/02 10:44:26;;;;;;;1.20;1.08;;;;;;;;;;4995427;28;20018;-21
2023/09/02 10:46:53;;;;;;;1.10;0.95;;;;;;;;;;4995449;28;20022;-21
2023/09/02 10:49:20;;;;;;;1.02;0.93;;;;;;;;;;4995443;28;20026;-21
2023/09/02 10:51:46;;;;;;;1.10;1.00;;;;;;;;;;4995349;28;20064;-21
2023/09/02 10:54:13;;;;;;;1.55;1.00;;;;;;;;;;4995353;28;20037;-21
2023/09/02 10:56:39;;;;;;;1.52;1.10;;;;;;;;;;4995354;28;20061;-21
2023/09/02 10:59:08;;;;;;;1.70;0.88;;;;;;;;;;4995557;28;20080;-21
2023/09/02 11:01:44;;;;;;;2.67;0.90;;;;;;;;;;4995706;28;20039;-22
2023/09/02 11:04:10;;;;;;;1.48;0.93;;;;;;;;;;4994966;28;20049;-22
2023/09/02 11:06:37;;;;;;;1.13;0.93;;;;;;;;;;4995228;28;20027;-21
2023/09/02 11:09:03;;;;;;;1.27;1.17;;;;;;;;;;4995478;28;20054;-21
2023/09/02 11:11:48;;;;;;;1.55;0.90;;;;;;;;;;4995672;28;20109;-24
2023/09/02 11:14:17;;;;;;;1.50;1.27;;;;;;;;;;4995432;28;20350;-22
2023/09/02 11:16:43;;;;;;;1.48;1.38;;;;;;;;;;4995434;28;20057;-21
2023/09/02 11:19:11;;;;;;;1.40;1.30;;;;;;;;;;4995419;28;20366;-21
2023/09/02 11:21:40;;;;;;;1.30;1.20;;;;;;;;;;4994968;28;20026;-21
2023/09/02 11:24:15;;;;;;;1.65;1.20;;;;;;;;;;4995058;28;20368;-21
2023/09/02 11:26:51;;;;;;;0.80;0.80;;;;;;;;;;4995318;28;20323;-21
2023/09/02 11:29:30;;;;;;;1.42;1.20;;;;;;;;;;4995048;28;20462;-23
2023/09/02 11:31:57;;;;;;;1.23;1.10;;;;;;;;;;4995185;28;20377;-21
2023/09/02 11:34:29;;;;;;;0.95;0.80;;;;;;;;;;4994974;28;20070;-23
2023/09/02 11:36:56;;;;;;;1.20;1.10;;;;;;;;;;4995459;28;20041;-21
2023/09/02 11:39:26;;;;;;;1.13;0.98;;;;;;;;;;4995224;28;20109;-21
2023/09/02 11:42:06;;;;;;;1.17;1.08;;;;;;;;;;4995260;28;20041;-22
2023/09/02 11:44:32;;;;;;;0.80;0.80;;;;;;;;;;4995206;28;20334;-22
2023/09/02 11:46:58;;;;;;;1.00;0.80;;;;;;;;;;4996762;28;20093;-21
2023/09/02 11:49:24;;;;;;;0.80;0.80;;;;;;;;;;4998920;28;20037;-22
2023/09/02 11:51:50;;;;;;;1.55;1.10;;;;;;;;;;4998554;28;20415;-21
2023/09/02 11:54:17;;;;;;;0.95;0.63;;;;;;;;;;4997591;28;20056;-21
2023/09/02 11:56:54;;;;;;;1.45;1.00;;;;;;;;;;4997839;28;20382;-21
2023/09/02 11:59:22;;;;;;;2.47;1.10;;;;;;;;;;4998496;28;20026;-21
2023/09/02 12:02:06;;;;;;;0.80;0.80;;;;;;;;;;4998538;28;20413;-21
2023/09/02 12:04:39;;;;;;;0.95;0.75;;;;;;;;;;4998360;28;20050;-21
2023/09/02 12:07:06;;;;;;;1.67;0.98;;;;;;;;;;4998366;28;20026;-21
2023/09/02 12:09:32;;;;;;;1.00;0.85;;;;;;;;;;4999337;28;20033;-21
2023/09/02 12:11:59;;;;;;;1.42;0.95;;;;;;;;;;4998393;28;20037;-21
2023/09/02 12:14:28;;;;;;;1.38;0.73;;;;;;;;;;4998173;28;20026;-21
2023/09/02 12:16:54;;;;;;;1.27;0.90;;;;;;;;;;4998154;28;20027;-21
2023/09/02 12:19:21;;;;;;;1.48;1.35;;;;;;;;;;4998137;28;20026;-21
2023/09/02 12:21:47;;;;;;;1.50;1.02;;;;;;;;;;4998185;28;20037;-22
2023/09/02 12:24:14;;;;;;;1.30;1.05;;;;;;;;;;4998037;28;20031;-21
2023/09/02 12:26:50;;;;;;;1.35;1.23;;;;;;;;;;4997985;28;20361;-21
2023/09/02 12:29:20;;;;;;;1.90;1.20;;;;;;;;;;4997955;28;20029;-21
2023/09/02 12:31:56;;;;;;;2.13;1.17;;;;;;;;;;4998155;28;20026;-21
2023/09/02 12:34:25;;;;;;;1.00;0.88;;;;;;;;;;4997844;28;20030;-21
2023/09/02 12:36:52;;;;;;;1.27;0.85;;;;;;;;;;4996871;28;20026;-24
2023/09/02 12:39:28;;;;;;;0.90;0.90;;;;;;;;;;4998273;28;20370;-21
2023/09/02 12:41:55;;;;;;;1.10;0.95;;;;;;;;;;4997536;28;20034;-22
2023/09/02 12:44:22;;;;;;;1.02;1.02;;;;;;;;;;4997613;28;20026;-23
2023/09/02 12:46:49;;;;;;;0.90;0.90;;;;;;;;;;4997869;28;20030;-22
2023/09/02 12:49:15;;;;;;;1.20;1.10;;;;;;;;;;4997510;28;20062;-21
2023/09/02 12:51:42;;;;;;;0.85;0.85;;;;;;;;;;4997509;28;20038;-21
2023/09/02 12:54:14;;;;;;;1.38;1.15;;;;;;;;;;4997414;28;20061;-21
2023/09/02 12:56:41;;;;;;;1.88;1.67;;;;;;;;;;4996881;28;20061;-24
2023/09/02 12:59:07;;;;;;;1.05;0.95;;;;;;;;;;4997362;28;20030;-23
2023/09/02 13:01:33;;;;;;;1.98;1.10;;;;;;;;;;4997791;28;20030;-21
2023/09/02 13:04:00;;;;;;;1.98;0.82;;;;;;;;;;4997188;28;20377;-21
2023/09/02 13:06:27;;;;;;;1.45;0.98;;;;;;;;;;4997239;28;20093;-21
2023/09/02 13:08:54;;;;;;;1.75;1.00;;;;;;;;;;4997468;28;20350;-21
2023/09/02 13:11:21;;;;;;;1.20;1.02;;;;;;;;;;4997423;28;20096;-22
2023/09/02 13:13:47;;;;;;;1.02;0.93;;;;;;;;;;4997030;28;20361;-21
2023/09/02 13:16:14;;;;;;;0.80;0.70;;;;;;;;;;4997260;28;20034;-22
2023/09/02 13:18:40;;;;;;;0.55;0.55;;;;;;;;;;4997334;28;20038;-22
2023/09/02 13:21:06;;;;;;;2.38;1.23;;;;;;;;;;4996885;28;20023;-22
2023/09/02 13:23:32;;;;;;;1.27;1.02;;;;;;;;;;4996851;28;20022;-21
2023/09/02 13:26:00;;;;;;;1.40;0.70;;;;;;;;;;4997109;28;20037;-22
2023/09/02 13:28:34;;;;;;;1.35;1.10;;;;;;;;;;4996810;28;20097;-21
2023/09/02 13:31:00;;;;;;;1.17;0.93;;;;;;;;;;4996807;28;20038;-22
2023/09/02 13:33:27;;;;;;;1.05;0.93;;;;;;;;;;4996834;28;20038;-21
2023/09/02 13:35:53;;;;;;;1.08;1.08;;;;;;;;;;4996914;28;20041;-21
2023/09/02 13:38:21;;;;;;;2.28;0.90;;;;;;;;;;4996901;28;20058;-22
2023/09/02 13:40:47;;;;;;;1.02;1.02;;;;;;;;;;4996491;28;20038;-22
2023/09/02 13:43:21;;;;;;;1.02;0.80;;;;;;;;;;4996411;28;20526;-21
2023/09/02 13:45:47;;;;;;;1.13;1.00;;;;;;;;;;4996733;28;20405;-21
2023/09/02 13:48:14;;;;;;;1.42;1.05;;;;;;;;;;4996752;28;20110;-29
2023/09/02 13:50:42;;;;;;;1.10;1.00;;;;;;;;;;4996708;28;20093;-21
2023/09/02 13:53:08;;;;;;;1.38;0.90;;;;;;;;;;4996392;28;20034;-22
2023/09/02 13:55:39;;;;;;;1.40;1.27;;;;;;;;;;4996255;28;20057;-21
2023/09/02 13:58:06;;;;;;;1.02;1.02;;;;;;;;;;4996846;28;20429;-21
2023/09/02 14:00:35;;;;;;;1.10;1.05;;;;;;;;;;4995340;28;20037;-21
2023/09/02 14:03:02;;;;;;;0.85;0.85;;;;;;;;;;4995854;28;20334;-23
2023/09/02 14:05:30;;;;;;;1.20;0.98;;;;;;;;;;4996452;28;20141;-21
2023/09/02 14:08:00;;;;;;;0.90;0.90;;;;;;;;;;4995518;28;20031;-21
2023/09/02 14:10:26;;;;;;;0.93;0.82;;;;;;;;;;4995966;28;20033;-21
2023/09/02 14:12:53;;;;;;;0.75;0.75;;;;;;;;;;4995907;28;20046;-22
2023/09/02 14:15:19;;;;;;;0.82;0.82;;;;;;;;;;4995958;28;20061;-21
2023/09/02 14:17:45;;;;;;;1.10;1.00;;;;;;;;;;4996173;28;20026;-22
2023/09/02 14:20:11;;;;;;;1.30;1.20;;;;;;;;;;4995879;28;20026;-21
2023/09/02 14:22:37;;;;;;;0.80;0.80;;;;;;;;;;4996198;28;20434;-21
2023/09/02 14:25:04;;;;;;;1.10;1.00;;;;;;;;;;4995814;28;20042;-21
2023/09/02 14:27:30;;;;;;;0.77;0.77;;;;;;;;;;4996030;28;20092;-21
2023/09/02 14:29:56;;;;;;;0.95;0.85;;;;;;;;;;4995986;28;20046;-21
2023/09/02 14:32:22;;;;;;;0.77;0.77;;;;;;;;;;4995658;28;20477;-21
2023/09/02 14:34:49;;;;;;;1.30;0.85;;;;;;;;;;4995637;28;20038;-21
2023/09/02 14:37:15;;;;;;;1.30;1.23;;;;;;;;;;4995868;28;20033;-21
2023/09/02 14:39:41;;;;;;;1.27;0.90;;;;;;;;;;4995537;28;20030;-21
2023/09/02 14:42:07;;;;;;;1.40;1.30;;;;;;;;;;4995563;28;20458;-21
2023/09/02 14:44:34;;;;;;;1.40;1.30;;;;;;;;;;4995805;28;20421;-21